Time;durP1;ratioP1;P1;durP2;ratioP2;P2;SDS_P1;SDS_P2;PMS_P1;PMS_P2;Temp;Humidity;BMP_temperature;BMP_pressure;BME280_temperature;BME280_humidity;BME280_pressure;Samples;Min_cycle;Max_cycle;Signal;HPM_P1;HPM_P2
2021/05/10 00:00:54;;;;;;;5.43;3.03;;;17.80;99.90;;;;;;5073392;28;20369;-67
2021/05/10 00:03:22;;;;;;;7.75;3.60;;;17.80;99.90;;;;;;5072371;28;20135;-67
2021/05/10 00:05:50;;;;;;;5.22;3.00;;;18.00;99.90;;;;;;5073394;28;20028;-67
2021/05/10 00:08:16;;;;;;;6.32;3.40;;;18.20;99.90;;;;;;5073469;28;20035;-67
2021/05/10 00:10:42;;;;;;;6.85;3.38;;;18.10;99.90;;;;;;5072851;28;20028;-67
2021/05/10 00:13:10;;;;;;;5.40;2.60;;;18.20;99.90;;;;;;5071802;28;20075;-66
2021/05/10 00:15:36;;;;;;;5.72;2.53;;;18.30;99.90;;;;;;5073260;28;20050;-67
2021/05/10 00:18:04;;;;;;;7.72;2.35;;;18.30;99.90;;;;;;5071598;28;20059;-67
2021/05/10 00:20:31;;;;;;;5.80;2.72;;;18.40;99.90;;;;;;5072906;28;20098;-67
2021/05/10 00:22:58;;;;;;;6.80;2.58;;;18.40;99.90;;;;;;5054912;28;20036;-67
2021/05/10 00:25:24;;;;;;;5.15;2.90;;;18.40;99.90;;;;;;5073190;28;20047;-67
2021/05/10 00:27:50;;;;;;;5.20;2.47;;;18.30;99.90;;;;;;5071697;28;20111;-67
2021/05/10 00:30:18;;;;;;;5.85;2.70;;;18.40;99.90;;;;;;5072723;28;20067;-67
2021/05/10 00:32:44;;;;;;;4.28;2.65;;;18.40;99.90;;;;;;5072761;28;20039;-67
2021/05/10 00:35:11;;;;;;;5.20;2.55;;;18.50;99.90;;;;;;5073000;28;20039;-67
2021/05/10 00:37:36;;;;;;;6.75;2.50;;;18.60;99.90;;;;;;5072704;28;20385;-67
2021/05/10 00:40:05;;;;;;;6.03;2.80;;;18.70;99.90;;;;;;5072762;28;20024;-67
2021/05/10 00:42:31;;;;;;;4.10;2.40;;;18.60;99.90;;;;;;5072868;28;20040;-67
2021/05/10 00:44:57;;;;;;;6.38;2.80;;;18.40;99.90;;;;;;5071278;28;20094;-67
2021/05/10 00:47:22;;;;;;;7.78;2.58;;;18.30;99.90;;;;;;5072781;28;20404;-67
2021/05/10 00:49:48;;;;;;;5.32;3.10;;;18.40;99.90;;;;;;5072564;28;20028;-66
2021/05/10 00:52:14;;;;;;;5.57;2.75;;;18.30;99.90;;;;;;5072720;28;20477;-67
2021/05/10 00:54:40;;;;;;;5.05;2.95;;;18.20;99.90;;;;;;5072569;28;20469;-68
2021/05/10 00:57:06;;;;;;;7.15;2.72;;;18.20;99.90;;;;;;5072638;28;20062;-67
2021/05/10 00:59:33;;;;;;;4.15;2.70;;;18.20;99.90;;;;;;5072630;28;20032;-67
2021/05/10 01:01:59;;;;;;;4.15;2.10;;;18.20;99.90;;;;;;5071249;28;20058;-67
2021/05/10 01:04:25;;;;;;;4.25;2.45;;;18.30;99.90;;;;;;5071567;28;20028;-67
2021/05/10 01:06:50;;;;;;;6.18;2.40;;;18.30;99.90;;;;;;5037702;28;20550;-67
2021/05/10 01:09:16;;;;;;;4.28;2.25;;;18.30;99.90;;;;;;5072159;28;20078;-67
2021/05/10 01:11:42;;;;;;;5.50;2.50;;;18.40;99.90;;;;;;5072358;28;20024;-67
2021/05/10 01:14:08;;;;;;;6.60;2.78;;;18.40;99.90;;;;;;5072325;28;20033;-68
2021/05/10 01:16:33;;;;;;;7.13;3.25;;;18.50;99.90;;;;;;5072403;28;20504;-67
2021/05/10 01:18:59;;;;;;;10.90;3.05;;;18.50;99.90;;;;;;5070392;28;20436;-68
2021/05/10 01:21:25;;;;;;;6.70;2.75;;;18.60;99.90;;;;;;5072409;28;20032;-66
2021/05/10 01:23:51;;;;;;;7.18;3.45;;;18.50;99.90;;;;;;5054096;28;20129;-66
2021/05/10 01:26:17;;;;;;;10.65;4.18;;;18.40;99.90;;;;;;5072407;28;20493;-66
2021/05/10 01:28:43;;;;;;;6.95;2.47;;;18.60;99.90;;;;;;5072079;28;20554;-67
2021/05/10 01:31:09;;;;;;;6.18;2.17;;;18.60;99.90;;;;;;5072317;28;20028;-66
2021/05/10 01:33:35;;;;;;;4.72;2.08;;;18.70;99.90;;;;;;5071869;28;20033;-66
2021/05/10 01:36:02;;;;;;;6.28;2.42;;;18.50;99.90;;;;;;5072156;28;20086;-67
2021/05/10 01:38:27;;;;;;;4.28;2.30;;;18.30;99.90;;;;;;5071827;28;20393;-66
2021/05/10 01:40:53;;;;;;;4.38;2.03;;;18.40;99.90;;;;;;5070804;28;20037;-66
2021/05/10 01:43:19;;;;;;;5.47;2.05;;;18.10;99.90;;;;;;5072139;28;20036;-66
2021/05/10 01:45:47;;;;;;;4.18;2.10;;;18.00;99.90;;;;;;5071805;28;20043;-66
2021/05/10 01:48:14;;;;;;;5.05;2.10;;;17.80;99.90;;;;;;5072078;28;20028;-67
2021/05/10 01:50:45;;;;;;;4.75;2.67;;;17.90;99.90;;;;;;5072173;28;20033;-67
2021/05/10 01:53:12;;;;;;;3.25;1.70;;;17.80;99.90;;;;;;5071794;28;20059;-66
2021/05/10 01:55:39;;;;;;;3.47;1.70;;;17.70;99.90;;;;;;5072102;28;20040;-66
2021/05/10 01:58:06;;;;;;;3.00;1.60;;;17.60;99.90;;;;;;5071877;28;20120;-67
2021/05/10 02:00:45;;;;;;;5.88;2.13;;;17.30;99.90;;;;;;5072218;28;20033;-66
2021/05/10 02:03:20;;;;;;;4.05;2.05;;;17.10;99.90;;;;;;5071990;28;20029;-66
2021/05/10 02:05:49;;;;;;;6.47;1.83;;;17.00;99.90;;;;;;5072136;28;20051;-66
2021/05/10 02:08:15;;;;;;;9.57;2.22;;;16.70;99.90;;;;;;5070346;28;20120;-66
2021/05/10 02:10:50;;;;;;;3.58;1.88;;;16.90;99.90;;;;;;5071978;28;20086;-66
2021/05/10 02:13:24;;;;;;;3.15;1.90;;;17.00;99.90;;;;;;5071685;28;20105;-67
2021/05/10 02:16:02;;;;;;;3.78;1.70;;;17.00;99.90;;;;;;5054095;28;20030;-66
2021/05/10 02:18:34;;;;;;;3.78;1.65;;;17.00;99.90;;;;;;5069986;28;20052;-67
2021/05/10 02:21:01;;;;;;;4.68;1.80;;;17.20;99.90;;;;;;5071869;28;20115;-66
2021/05/10 02:23:36;;;;;;;5.78;1.80;;;17.40;99.90;;;;;;5071819;28;20033;-66
2021/05/10 02:26:07;;;;;;;5.18;2.00;;;17.50;99.90;;;;;;5071357;28;20079;-66
2021/05/10 02:28:33;;;;;;;;;;;17.70;99.90;;;;;;5074366;28;20382;-66
2021/05/10 02:31:01;;;;;;;3.97;1.90;;;17.60;99.90;;;;;;5075230;28;19999;-67
2021/05/10 02:33:33;;;;;;;16.80;2.10;;;17.60;99.90;;;;;;5075262;28;20028;-67
2021/05/10 02:36:00;;;;;;;5.47;1.77;;;17.70;99.90;;;;;;5075239;28;20033;-66
2021/05/10 02:38:26;;;;;;;3.30;1.83;;;17.80;99.90;;;;;;5075089;28;20035;-67
2021/05/10 02:40:53;;;;;;;2.97;1.75;;;17.80;99.90;;;;;;5057325;28;20029;-67
2021/05/10 02:43:22;;;;;;;5.47;2.33;;;17.90;99.90;;;;;;5073647;28;20536;-67
2021/05/10 02:45:49;;;;;;;3.17;1.85;;;17.80;99.90;;;;;;5074517;28;20040;-66
2021/05/10 02:48:15;;;;;;;3.72;1.92;;;17.80;99.90;;;;;;5074918;28;20032;-67
2021/05/10 02:50:41;;;;;;;4.80;1.80;;;17.70;99.90;;;;;;5074968;28;20373;-66
2021/05/10 02:53:07;;;;;;;3.75;1.95;;;17.60;99.90;;;;;;5074743;28;20504;-67
2021/05/10 02:55:33;;;;;;;3.60;1.80;;;17.50;99.90;;;;;;5073418;28;20060;-66
2021/05/10 02:57:59;;;;;;;5.88;1.70;;;17.60;99.90;;;;;;5074662;28;20025;-67
2021/05/10 03:00:28;;;;;;;4.32;1.73;;;17.60;99.90;;;;;;5074810;28;20063;-66
2021/05/10 03:02:56;;;;;;;4.95;1.70;;;17.70;99.90;;;;;;5074652;28;20029;-67
2021/05/10 03:05:23;;;;;;;2.70;1.60;;;17.80;99.90;;;;;;5074290;28;20033;-66
2021/05/10 03:07:49;;;;;;;5.72;1.42;;;17.70;99.90;;;;;;5074624;28;20020;-66
2021/05/10 03:10:19;;;;;;;4.53;1.60;;;17.70;99.90;;;;;;5074542;28;20029;-67
2021/05/10 03:12:45;;;;;;;3.53;1.35;;;17.80;99.90;;;;;;5073088;28;20111;-66
2021/05/10 03:15:18;;;;;;;2.90;1.48;;;18.00;99.90;;;;;;5074469;28;20025;-66
2021/05/10 03:17:44;;;;;;;3.55;1.55;;;18.20;99.90;;;;;;5073326;28;20116;-66
2021/05/10 03:20:15;;;;;;;4.57;1.50;;;18.30;99.90;;;;;;5073969;28;20044;-66
2021/05/10 03:22:41;;;;;;;2.30;1.42;;;18.50;99.90;;;;;;5074439;28;20021;-67
2021/05/10 03:25:09;;;;;;;2.58;1.33;;;18.50;99.90;;;;;;5073897;28;20044;-67
2021/05/10 03:27:41;;;;;;;2.85;1.42;;;18.40;99.90;;;;;;5074469;28;20444;-66
2021/05/10 03:30:19;;;;;;;4.00;1.52;;;18.40;99.90;;;;;;5074236;28;20434;-66
2021/05/10 03:32:46;;;;;;;2.55;1.20;;;18.70;99.90;;;;;;5074313;28;20035;-67
2021/05/10 03:35:14;;;;;;;3.67;1.42;;;18.80;99.90;;;;;;5072555;28;20481;-66
2021/05/10 03:37:41;;;;;;;3.45;1.30;;;18.80;99.90;;;;;;5073010;28;20056;-65
2021/05/10 03:40:12;;;;;;;4.93;1.40;;;18.80;99.90;;;;;;5072521;28;20040;-66
2021/05/10 03:42:39;;;;;;;2.50;1.48;;;18.90;99.90;;;;;;5072593;28;20024;-67
2021/05/10 03:45:08;;;;;;;3.75;1.20;;;19.00;99.90;;;;;;5071086;28;20094;-66
2021/05/10 03:47:40;;;;;;;3.65;1.23;;;19.00;99.90;;;;;;5073818;28;20025;-66
2021/05/10 03:50:17;;;;;;;3.80;1.83;;;18.80;99.90;;;;;;5067421;28;20036;-66
2021/05/10 03:52:44;;;;;;;2.60;1.38;;;18.80;99.90;;;;;;5071850;28;20082;-67
2021/05/10 03:55:14;;;;;;;5.22;1.35;;;18.90;99.90;;;;;;5073003;28;20509;-67
2021/05/10 03:57:40;;;;;;;3.42;1.50;;;19.00;99.80;;;;;;5073789;28;20060;-66
2021/05/10 04:00:09;;;;;;;3.42;1.55;;;19.10;98.90;;;;;;5072996;28;20468;-66
2021/05/10 04:02:36;;;;;;;2.67;1.15;;;19.20;98.50;;;;;;5073318;28;20055;-66
2021/05/10 04:15:35;;;;;;;3.85;1.20;;;19.80;94.60;;;;;;5052265;28;20091;-67
2021/05/10 04:18:00;;;;;;;2.08;1.20;;;19.80;94.00;;;;;;5052913;28;20049;-66
2021/05/10 04:20:26;;;;;;;2.15;1.40;;;20.00;93.50;;;;;;5053188;28;20045;-66
2021/05/10 04:22:52;;;;;;;2.83;1.35;;;20.00;93.40;;;;;;5054112;28;20021;-66
2021/05/10 04:25:18;;;;;;;4.13;1.40;;;20.00;92.70;;;;;;5073037;28;20111;-66
2021/05/10 04:27:45;;;;;;;1.92;1.05;;;20.00;92.80;;;;;;5073140;28;20090;-67
2021/05/10 04:30:12;;;;;;;3.88;1.30;;;20.00;92.80;;;;;;5072845;28;20131;-66
2021/05/10 04:32:38;;;;;;;2.70;1.10;;;20.00;92.90;;;;;;5073024;28;20036;-67
2021/05/10 04:35:06;;;;;;;4.95;1.40;;;20.00;92.80;;;;;;5072743;28;20074;-68
2021/05/10 04:37:31;;;;;;;3.70;1.13;;;19.90;92.80;;;;;;5073044;28;20032;-67
2021/05/10 04:39:57;;;;;;;4.78;1.40;;;19.90;92.80;;;;;;5072525;28;20385;-66
2021/05/10 04:42:23;;;;;;;4.47;1.27;;;20.00;92.70;;;;;;5071708;28;20465;-66
2021/05/10 04:44:50;;;;;;;7.55;1.35;;;20.00;92.90;;;;;;5072496;28;20040;-67
2021/05/10 04:47:16;;;;;;;4.78;1.50;;;19.90;93.30;;;;;;5072186;28;20024;-67
2021/05/10 04:49:41;;;;;;;2.63;1.05;;;19.70;93.80;;;;;;5072190;28;20431;-66
2021/05/10 04:52:07;;;;;;;6.25;1.67;;;19.70;93.90;;;;;;5072503;28;20032;-67
2021/05/10 04:54:33;;;;;;;2.55;1.40;;;19.70;94.00;;;;;;5057715;28;20115;-66
2021/05/10 04:56:59;;;;;;;2.42;1.27;;;19.50;94.70;;;;;;5052514;28;20057;-66
2021/05/10 04:59:25;;;;;;;5.57;1.15;;;19.40;94.80;;;;;;5052626;28;20028;-65
2021/05/10 05:01:50;;;;;;;4.60;1.30;;;19.50;94.90;;;;;;5051322;28;20029;-66
2021/05/10 05:04:17;;;;;;;3.05;1.20;;;19.50;94.80;;;;;;5052501;28;20083;-65
2021/05/10 05:06:43;;;;;;;2.50;1.25;;;19.50;95.00;;;;;;5051324;28;20055;-66
2021/05/10 05:09:09;;;;;;;22.10;12.30;;;19.50;95.00;;;;;;5052155;28;20036;-65
2021/05/10 05:11:34;;;;;;;4.60;1.80;;;19.50;94.90;;;;;;5052404;28;20025;-66
2021/05/10 05:14:00;;;;;;;3.97;1.67;;;19.50;95.30;;;;;;5052372;28;20075;-67
2021/05/10 05:16:26;;;;;;;3.72;1.65;;;19.50;95.90;;;;;;5052026;28;20035;-65
2021/05/10 05:18:52;;;;;;;3.75;1.30;;;19.50;96.10;;;;;;5051880;28;20529;-70
2021/05/10 05:21:17;;;;;;;6.53;1.33;;;19.60;95.10;;;;;;5052164;28;20060;-66
2021/05/10 05:23:43;;;;;;;2.28;1.15;;;19.60;95.80;;;;;;5060308;28;20033;-66
2021/05/10 05:26:09;;;;;;;2.50;1.20;;;19.60;95.60;;;;;;5072095;28;20098;-68
2021/05/10 05:28:34;;;;;;;2.45;1.27;;;19.60;95.20;;;;;;5072376;28;20068;-65
2021/05/10 05:31:02;;;;;;;4.00;1.75;;;19.60;95.30;;;;;;5072078;28;20116;-65
2021/05/10 05:33:29;;;;;;;2.03;1.17;;;19.70;95.50;;;;;;5058606;28;20109;-65
2021/05/10 05:35:55;;;;;;;2.28;1.30;;;19.80;95.20;;;;;;5031578;28;20033;-65
2021/05/10 05:38:21;;;;;;;5.95;1.45;;;19.80;96.00;;;;;;5030225;28;20144;-65
2021/05/10 05:40:47;;;;;;;7.13;1.35;;;19.60;97.70;;;;;;5031510;28;20056;-65
2021/05/10 05:43:14;;;;;;;3.28;1.30;;;19.40;97.10;;;;;;5030954;28;20037;-66
2021/05/10 05:45:42;;;;;;;5.40;1.83;;;19.40;97.20;;;;;;5032242;28;20041;-66
2021/05/10 05:48:12;;;;;;;3.90;1.50;;;19.30;97.80;;;;;;5031688;28;20075;-66
2021/05/10 05:50:40;;;;;;;6.03;1.98;;;19.40;99.00;;;;;;5031859;28;20402;-66
2021/05/10 05:53:06;;;;;;;2.28;1.25;;;19.60;97.80;;;;;;5037751;28;20477;-67
2021/05/10 05:55:32;;;;;;;3.35;1.88;;;19.60;98.60;;;;;;5072110;28;20109;-65
2021/05/10 05:57:58;;;;;;;6.15;1.65;;;19.20;99.90;;;;;;5071533;28;20074;-66
2021/05/10 06:00:24;;;;;;;5.82;2.63;;;19.00;99.90;;;;;;5072084;28;20029;-66
2021/05/10 06:02:50;;;;;;;4.07;1.73;;;19.00;99.90;;;;;;5075718;28;20029;-65
2021/05/10 06:05:16;;;;;;;4.32;1.67;;;19.00;99.90;;;;;;5075747;28;20097;-66
2021/05/10 06:07:44;;;;;;;19.73;10.82;;;19.10;99.90;;;;;;5070694;28;20045;-66
2021/05/10 06:10:21;;;;;;;7.80;2.30;;;19.20;99.90;;;;;;5055479;28;20044;-67
2021/05/10 06:12:51;;;;;;;4.75;1.60;;;19.60;99.90;;;;;;5055717;28;20029;-66
2021/05/10 06:15:22;;;;;;;5.43;1.80;;;19.60;99.90;;;;;;5055603;28;20128;-66
2021/05/10 06:17:49;;;;;;;4.13;1.60;;;19.90;99.90;;;;;;5055391;28;20032;-66
2021/05/10 06:20:17;;;;;;;6.43;1.77;;;20.20;99.60;;;;;;5055545;28;20060;-66
2021/05/10 06:22:44;;;;;;;5.60;2.60;;;20.30;99.70;;;;;;5055454;28;20033;-65
2021/05/10 06:25:22;;;;;;;7.75;1.70;;;20.30;99.60;;;;;;5035287;28;20026;-66
2021/05/10 06:27:47;;;;;;;3.67;1.77;;;20.40;99.60;;;;;;5050614;28;20032;-66
2021/05/10 06:30:14;;;;;;;3.05;1.65;;;20.20;99.90;;;;;;5035492;28;20029;-66
2021/05/10 06:32:41;;;;;;;4.18;1.60;;;20.00;99.90;;;;;;5033786;28;20561;-67
2021/05/10 06:46:13;;;;;;;4.97;1.95;;;19.60;99.90;;;;;;5034661;28;20095;-66
2021/05/10 06:48:39;;;;;;;5.70;2.38;;;19.50;99.90;;;;;;5034499;28;20041;-67
2021/05/10 06:51:45;;;;;;;4.85;2.08;;;19.60;99.90;;;;;;5035034;28;20068;-67
2021/05/10 06:54:11;;;;;;;4.32;1.83;;;19.60;99.90;;;;;;5035756;28;20038;-67
2021/05/10 06:57:07;;;;;;;5.47;1.88;;;19.60;99.90;;;;;;5035877;28;20100;-67
2021/05/10 06:59:32;;;;;;;5.00;1.90;;;19.60;99.90;;;;;;5034306;28;20132;-66
2021/05/10 07:01:58;;;;;;;3.33;1.65;;;19.70;99.90;;;;;;5035889;28;20112;-69
2021/05/10 07:04:24;;;;;;;4.68;1.65;;;19.80;99.90;;;;;;5034637;28;20029;-66
2021/05/10 07:06:50;;;;;;;2.90;1.55;;;20.00;99.90;;;;;;5035558;28;20045;-66
2021/05/10 07:09:16;;;;;;;4.75;1.70;;;20.10;99.90;;;;;;5035677;28;20034;-66
2021/05/10 07:11:41;;;;;;;7.05;1.38;;;20.30;99.90;;;;;;5035646;28;20033;-66
2021/05/10 07:14:07;;;;;;;9.30;3.00;;;20.40;99.90;;;;;;5036029;28;20112;-66
2021/05/10 07:16:34;;;;;;;4.75;1.45;;;20.50;99.90;;;;;;5035516;28;20071;-66
2021/05/10 07:19:00;;;;;;;4.00;1.52;;;20.70;99.90;;;;;;5035235;28;20049;-66
2021/05/10 07:21:26;;;;;;;4.78;1.75;;;20.90;99.90;;;;;;5033999;28;20040;-66
2021/05/10 07:23:53;;;;;;;4.28;1.60;;;20.90;99.80;;;;;;5035381;28;20143;-66
2021/05/10 07:26:19;;;;;;;4.03;1.90;;;21.00;99.80;;;;;;5035056;28;20034;-66
2021/05/10 07:28:45;;;;;;;4.50;1.58;;;21.10;99.90;;;;;;5035209;28;20303;-66
2021/05/10 07:31:11;;;;;;;2.88;1.60;;;21.10;99.50;;;;;;5035455;28;20052;-66
2021/05/10 07:33:37;;;;;;;6.85;1.50;;;21.20;99.30;;;;;;5034963;28;20037;-66
2021/05/10 07:36:03;;;;;;;2.65;1.40;;;21.20;98.60;;;;;;5035852;28;20036;-66
2021/05/10 07:38:29;;;;;;;5.55;1.45;;;21.20;99.20;;;;;;5035062;28;20026;-66
2021/05/10 07:40:55;;;;;;;3.50;1.60;;;21.20;98.70;;;;;;5034979;28;20036;-65
2021/05/10 07:43:22;;;;;;;6.05;1.60;;;21.20;98.50;;;;;;5035572;28;20021;-66
2021/05/10 07:45:47;;;;;;;3.42;1.50;;;21.20;98.90;;;;;;5034917;28;20119;-66
2021/05/10 07:48:13;;;;;;;3.55;1.60;;;21.20;98.70;;;;;;5034381;28;20061;-66
2021/05/10 07:54:20;;;;;;;11.30;6.63;;;21.60;98.20;;;;;;5054443;28;20118;-65
2021/05/10 07:56:46;;;;;;;5.53;1.83;;;21.80;97.70;;;;;;5053504;28;20076;-65
2021/05/10 07:59:12;;;;;;;9.25;1.30;;;21.90;96.50;;;;;;5053616;28;20460;-65
2021/05/10 08:01:38;;;;;;;5.65;1.33;;;21.90;95.70;;;;;;5053697;28;20033;-65
2021/05/10 08:04:04;;;;;;;8.13;1.60;;;21.70;96.30;;;;;;5053520;28;20025;-65
2021/05/10 08:06:30;;;;;;;5.95;1.50;;;21.70;95.90;;;;;;5055857;28;20132;-65
2021/05/10 08:08:56;;;;;;;2.25;1.02;;;21.70;96.10;;;;;;5053298;28;20540;-65
2021/05/10 08:11:22;;;;;;;9.48;1.58;;;21.60;95.40;;;;;;5053159;28;20440;-65
2021/05/10 08:13:48;;;;;;;4.00;1.02;;;21.50;96.10;;;;;;5052070;28;20037;-65
2021/05/10 08:16:13;;;;;;;2.97;0.80;;;21.50;95.30;;;;;;5053138;28;20473;-65
2021/05/10 08:18:42;;;;;;;9.63;1.02;;;21.30;94.70;;;;;;5052843;28;20045;-65
2021/05/10 08:21:09;;;;;;;2.00;0.60;;;21.10;95.20;;;;;;5053258;28;20112;-65
2021/05/10 08:23:35;;;;;;;1.48;0.45;;;21.00;94.10;;;;;;5059180;28;20078;-65
2021/05/10 08:26:01;;;;;;;1.40;0.50;;;21.00;94.30;;;;;;5073028;28;20032;-65
2021/05/10 08:28:27;;;;;;;5.45;0.60;;;20.90;93.90;;;;;;5073000;28;20109;-66
2021/05/10 08:30:54;;;;;;;4.55;0.38;;;20.90;94.40;;;;;;5072744;28;20111;-66
2021/05/10 08:33:20;;;;;;;1.73;0.60;;;20.90;94.20;;;;;;5073049;28;20064;-66
2021/05/10 08:35:45;;;;;;;3.53;0.60;;;20.90;94.30;;;;;;5072919;28;20052;-66
2021/05/10 08:38:11;;;;;;;2.78;0.52;;;20.90;94.70;;;;;;5073043;28;20032;-65
2021/05/10 08:40:37;;;;;;;7.15;0.80;;;21.00;94.80;;;;;;5072796;28;20043;-65
2021/05/10 08:43:21;;;;;;;0.80;0.43;;;21.00;93.60;;;;;;5072487;28;20024;-66
2021/05/10 08:45:54;;;;;;;0.60;0.40;;;21.00;93.30;;;;;;5072761;28;20077;-66
2021/05/10 08:48:25;;;;;;;2.42;0.47;;;21.00;94.00;;;;;;5072746;28;20068;-66
2021/05/10 08:50:53;;;;;;;4.72;0.60;;;21.10;93.70;;;;;;5072627;28;20085;-66
2021/05/10 08:53:51;;;;;;;3.25;0.60;;;20.90;93.20;;;;;;5067884;28;20040;-64
2021/05/10 08:56:16;;;;;;;1.08;0.30;;;20.80;93.60;;;;;;5029317;28;20060;-65
2021/05/10 08:58:47;;;;;;;1.85;0.70;;;21.00;93.80;;;;;;5052674;28;20472;-65
2021/05/10 09:01:15;;;;;;;4.32;0.45;;;21.10;92.60;;;;;;5052606;28;20029;-66
2021/05/10 09:03:45;;;;;;;1.23;0.43;;;21.20;92.70;;;;;;5052562;28;20473;-65
2021/05/10 09:06:13;;;;;;;2.58;0.45;;;21.20;92.10;;;;;;5052489;28;20036;-65
2021/05/10 09:08:42;;;;;;;2.67;0.38;;;21.10;92.20;;;;;;5052580;28;20033;-65
2021/05/10 09:11:19;;;;;;;4.28;0.70;;;20.90;93.10;;;;;;5052223;28;20033;-66
2021/05/10 09:13:54;;;;;;;1.10;0.50;;;20.90;92.60;;;;;;5052473;28;20071;-66
2021/05/10 09:16:20;;;;;;;1.33;0.40;;;21.00;93.00;;;;;;5050960;28;20037;-66
2021/05/10 09:18:56;;;;;;;1.60;0.70;;;21.10;93.60;;;;;;5051848;28;20060;-65
2021/05/10 09:21:27;;;;;;;2.38;0.57;;;21.00;93.60;;;;;;5052334;28;20431;-65
2021/05/10 09:23:56;;;;;;;1.23;0.57;;;21.00;93.40;;;;;;5061713;28;20032;-65
2021/05/10 09:26:35;;;;;;;1.83;0.30;;;20.90;93.60;;;;;;5072331;28;20036;-65
2021/05/10 09:29:02;;;;;;;0.45;0.25;;;20.80;93.60;;;;;;5070835;28;20029;-65
2021/05/10 09:31:29;;;;;;;0.80;0.50;;;20.80;93.60;;;;;;5072283;28;20028;-64
2021/05/10 09:33:57;;;;;;;2.30;0.63;;;20.90;94.00;;;;;;5072346;28;20028;-65
2021/05/10 09:36:34;;;;;;;1.85;0.38;;;20.90;94.20;;;;;;5073964;28;20060;-65
2021/05/10 09:39:03;;;;;;;2.42;0.47;;;20.90;94.40;;;;;;5036044;28;20037;-65
2021/05/10 09:41:29;;;;;;;3.75;0.60;;;21.10;94.10;;;;;;5036359;28;20539;-65
2021/05/10 09:44:05;;;;;;;0.52;0.38;;;21.30;93.80;;;;;;5036186;28;20033;-65
2021/05/10 09:46:39;;;;;;;1.50;0.30;;;21.50;93.20;;;;;;5035127;28;20032;-65
2021/05/10 09:49:05;;;;;;;0.43;0.30;;;21.50;93.30;;;;;;5036284;28;20036;-65
2021/05/10 09:51:31;;;;;;;0.70;0.20;;;21.50;92.10;;;;;;5055972;28;20404;-65
2021/05/10 09:53:58;;;;;;;1.80;0.47;;;21.30;91.90;;;;;;5081213;28;20476;-66
2021/05/10 09:58:58;;;;;;;1.42;0.40;;;21.20;92.50;;;;;;5058491;28;20029;-66
2021/05/10 10:01:36;;;;;;;1.08;0.40;;;21.30;92.70;;;;;;5055894;28;20033;-66
2021/05/10 10:04:03;;;;;;;2.10;0.38;;;21.20;92.50;;;;;;5055861;28;20032;-65
2021/05/10 10:06:29;;;;;;;0.52;0.25;;;21.10;92.90;;;;;;5055951;28;20033;-66
2021/05/10 10:08:56;;;;;;;0.88;0.20;;;21.00;91.40;;;;;;5055763;28;20032;-66
2021/05/10 10:11:25;;;;;;;0.38;0.20;;;20.70;91.60;;;;;;5055683;28;20036;-65
2021/05/10 10:13:55;;;;;;;1.25;0.30;;;20.60;92.20;;;;;;5055724;28;20083;-65
2021/05/10 10:16:26;;;;;;;1.98;0.30;;;20.50;92.10;;;;;;5055490;28;20025;-65
2021/05/10 10:18:54;;;;;;;0.20;0.10;;;20.20;92.60;;;;;;5055064;28;20135;-65
2021/05/10 10:21:21;;;;;;;0.50;0.20;;;20.20;93.20;;;;;;5055485;28;20445;-65
2021/05/10 10:24:03;;;;;;;0.10;0.10;;;20.40;93.00;;;;;;5064109;28;20033;-65
2021/05/10 10:26:32;;;;;;;2.03;0.25;;;20.60;92.90;;;;;;5075210;28;20472;-65
2021/05/10 10:29:05;;;;;;;1.67;0.45;;;20.60;92.20;;;;;;5075191;28;20074;-66
2021/05/10 10:31:35;;;;;;;0.15;0.08;;;20.60;92.60;;;;;;5074131;28;20028;-65
2021/05/10 10:34:22;;;;;;;1.17;0.35;;;20.80;91.80;;;;;;5073977;28;20037;-65
2021/05/10 10:36:58;;;;;;;0.55;0.30;;;20.90;91.60;;;;;;5075273;28;20093;-65
2021/05/10 10:39:30;;;;;;;0.30;0.10;;;20.90;91.80;;;;;;5075213;28;20041;-65
2021/05/10 10:42:05;;;;;;;1.10;0.20;;;21.00;91.80;;;;;;5062004;28;20036;-65
2021/05/10 10:44:52;;;;;;;0.32;0.20;;;21.10;91.20;;;;;;5055244;28;20032;-66
2021/05/10 10:47:44;;;;;;;0.32;0.20;;;21.20;91.00;;;;;;5054312;28;20037;-66
2021/05/10 10:50:11;;;;;;;0.47;0.20;;;21.30;91.20;;;;;;5054899;28;20037;-65
2021/05/10 10:53:02;;;;;;;1.55;0.38;;;21.60;90.40;;;;;;5054652;28;20369;-65
2021/05/10 10:55:31;;;;;;;3.88;0.40;;;21.60;91.20;;;;;;5049859;28;20057;-66
2021/05/10 10:58:12;;;;;;;0.32;0.17;;;21.70;90.80;;;;;;5034759;28;20116;-65
2021/05/10 11:00:56;;;;;;;;;;;21.70;90.40;;;;;;5035083;28;20041;-65
2021/05/10 11:03:26;;;;;;;0.43;0.25;;;21.50;90.40;;;;;;5034684;28;20300;-66
2021/05/10 11:05:53;;;;;;;;;;;21.60;90.40;;;;;;5035196;28;20026;-66
2021/05/10 11:08:54;;;;;;;0.70;0.20;;;21.50;90.20;;;;;;5033378;28;19916;-66
2021/05/10 11:11:32;;;;;;;0.32;0.10;;;21.20;90.60;;;;;;5031422;28;20042;-66
2021/05/10 11:13:59;;;;;;;0.63;0.10;;;21.30;89.20;;;;;;5034610;28;20065;-65
2021/05/10 11:16:53;;;;;;;1.08;0.22;;;21.30;89.90;;;;;;5034648;28;20044;-65
2021/05/10 11:19:39;;;;;;;1.02;0.30;;;21.00;89.30;;;;;;5033944;28;20085;-66
2021/05/10 11:22:30;;;;;;;2.33;0.32;;;20.80;90.20;;;;;;5034041;28;20453;-66
2021/05/10 11:24:56;;;;;;;1.65;0.20;;;20.70;90.50;;;;;;5070030;28;20040;-66
2021/05/10 11:27:31;;;;;;;0.40;0.10;;;20.60;90.50;;;;;;5074137;28;20460;-66
2021/05/10 11:29:57;;;;;;;1.02;0.40;;;20.60;90.70;;;;;;5074268;28;20057;-65
2021/05/10 11:32:27;;;;;;;2.97;0.40;;;20.70;91.40;;;;;;5074013;28;20387;-65
2021/05/10 11:34:53;;;;;;;0.30;0.28;;;20.60;91.20;;;;;;5074248;28;20029;-66
2021/05/10 11:37:25;;;;;;;3.08;0.40;;;20.60;90.90;;;;;;5074084;28;20027;-65
2021/05/10 11:39:57;;;;;;;2.83;0.68;;;20.40;91.20;;;;;;5073942;28;20033;-66
2021/05/10 11:42:28;;;;;;;1.35;0.32;;;20.30;91.30;;;;;;5072646;28;20029;-66
2021/05/10 11:45:00;;;;;;;0.85;0.30;;;20.10;91.30;;;;;;5073841;28;20029;-66
2021/05/10 11:47:26;;;;;;;0.10;0.10;;;20.20;91.30;;;;;;5073808;28;20101;-66
2021/05/10 11:49:52;;;;;;;0.47;0.20;;;20.10;91.40;;;;;;5073587;28;20036;-66
2021/05/10 11:52:28;;;;;;;0.30;0.20;;;20.10;91.50;;;;;;5073322;28;20412;-66
2021/05/10 11:54:58;;;;;;;0.57;0.22;;;20.10;91.70;;;;;;5055438;28;20037;-66
2021/05/10 11:57:27;;;;;;;3.72;1.27;;;20.10;91.90;;;;;;5053700;28;20033;-66
2021/05/10 12:02:28;;;;;;;0.82;0.20;;;20.10;92.20;;;;;;5066678;28;20124;-66
2021/05/10 12:05:00;;;;;;;0.38;0.20;;;20.20;92.40;;;;;;5073690;28;20456;-66
2021/05/10 12:07:29;;;;;;;7.75;0.47;;;20.30;92.60;;;;;;5073348;28;20040;-66
2021/05/10 12:09:59;;;;;;;2.33;0.25;;;20.30;92.50;;;;;;5073221;28;20032;-66
2021/05/10 12:12:46;;;;;;;0.50;0.30;;;20.40;92.70;;;;;;5073422;28;20037;-65
2021/05/10 12:15:23;;;;;;;2.65;0.30;;;20.40;92.90;;;;;;5073279;28;20062;-66
2021/05/10 12:17:55;;;;;;;0.57;0.30;;;20.50;92.90;;;;;;5073130;28;20508;-66
2021/05/10 12:20:32;;;;;;;1.08;0.20;;;20.50;93.00;;;;;;5073195;28;20029;-66
2021/05/10 12:23:05;;;;;;;0.17;0.10;;;20.40;93.40;;;;;;5071047;28;20028;-66
2021/05/10 12:25:36;;;;;;;1.05;0.47;;;20.50;93.50;;;;;;5052883;28;20416;-66
2021/05/10 12:28:15;;;;;;;0.98;0.45;;;20.30;93.70;;;;;;5050765;28;20036;-66
2021/05/10 12:30:44;;;;;;;0.75;0.30;;;20.10;94.50;;;;;;5052993;28;20025;-67
2021/05/10 12:33:17;;;;;;;0.85;0.40;;;20.10;95.20;;;;;;5052509;28;20389;-67
2021/05/10 12:35:54;;;;;;;0.35;0.13;;;19.90;96.20;;;;;;5052971;28;20071;-67
2021/05/10 12:38:27;;;;;;;1.02;0.50;;;19.60;96.70;;;;;;5068258;28;20079;-66
2021/05/10 12:40:54;;;;;;;1.98;0.57;;;19.60;98.10;;;;;;5052937;28;20033;-66
2021/05/10 12:43:25;;;;;;;2.17;0.22;;;19.50;98.10;;;;;;5052762;28;20036;-67
2021/05/10 12:45:57;;;;;;;1.15;0.50;;;19.40;99.80;;;;;;5052891;28;20027;-66
2021/05/10 12:48:31;;;;;;;1.38;0.32;;;19.10;99.90;;;;;;5052578;28;20477;-66
2021/05/10 12:51:10;;;;;;;0.77;0.40;;;19.00;99.90;;;;;;5052515;28;20029;-67
2021/05/10 12:53:52;;;;;;;1.20;0.30;;;18.90;99.90;;;;;;5059248;28;20028;-66
2021/05/10 12:56:29;;;;;;;0.55;0.20;;;18.70;99.90;;;;;;5070718;28;20036;-67
2021/05/10 12:59:00;;;;;;;0.57;0.25;;;18.60;99.90;;;;;;5072149;28;20021;-67
2021/05/10 13:01:30;;;;;;;0.55;0.30;;;18.40;99.90;;;;;;5072248;28;20488;-67
2021/05/10 13:04:01;;;;;;;2.78;0.30;;;18.40;99.90;;;;;;5072811;28;20032;-67
2021/05/10 13:06:34;;;;;;;;;;;18.20;99.90;;;;;;5073100;28;20083;-67
2021/05/10 13:09:03;;;;;;;0.60;0.20;;;18.20;99.90;;;;;;5072450;28;19915;-67
2021/05/10 13:11:47;;;;;;;0.28;0.17;;;18.10;99.90;;;;;;5072183;28;20081;-67
2021/05/10 13:14:31;;;;;;;2.72;0.47;;;18.10;99.90;;;;;;5072493;28;20024;-67
2021/05/10 13:31:42;;;;;;;0.98;0.40;;;17.90;99.90;;;;;;5032109;28;20045;-66
2021/05/10 13:34:28;;;;;;;2.25;0.52;;;18.00;99.90;;;;;;5032164;28;20033;-66
2021/05/10 13:37:07;;;;;;;1.00;0.35;;;18.00;99.90;;;;;;5031416;28;20040;-67
2021/05/10 13:39:34;;;;;;;0.77;0.47;;;17.80;99.90;;;;;;5032237;28;20116;-66
2021/05/10 13:44:29;;;;;;;1.15;0.55;;;17.80;99.90;;;;;;5032015;28;20484;-66
2021/05/10 13:46:56;;;;;;;0.73;0.40;;;17.80;99.90;;;;;;5032254;28;20052;-65